Weather reports worldwide

Advertisment
Grantley Adams, Grenada (78954): temperature & dewpoint: 13.01.2019 07:00:00 - 19.01.2019 07:00:00 (AST)Grantley Adams, Grenada (78954): wind speed: 13.01.2019 07:00:00 - 19.01.2019 07:00:00 (AST)Grantley Adams, Grenada (78954): wind direction: 13.01.2019 07:00:00 - 19.01.2019 07:00:00 (AST)Grantley Adams, Grenada (78954): visibility: 13.01.2019 07:00:00 - 19.01.2019 07:00:00 (AST)
Date & Time tt [°C] td [°C] ff [km/h] ff [kn] dd vv [km]
19.01.2019 07:00:00 - - - - - -
19.01.2019 06:00:00 25,0 20,0 18 10 E 10
19.01.2019 05:00:00 25,0 20,0 21 11 E 10
19.01.2019 04:00:00 25,0 20,0 21 11 E 10
19.01.2019 03:00:00 25,0 20,0 21 11 E 10
19.01.2019 02:00:00 25,0 20,0 22 12 E 10
19.01.2019 01:00:00 25,0 20,0 22 12 E 10
19.01.2019 00:00:00 25,0 20,0 21 11 E 10
18.01.2019 23:00:00 25,0 20,0 26 14 E 10
18.01.2019 22:00:00 25,0 20,0 24 13 E 10
18.01.2019 21:00:00 25,0 20,0 24 13 E 10
18.01.2019 20:00:00 26,0 21,0 21 11 E 10
18.01.2019 19:00:00 26,0 21,0 21 11 E 10
18.01.2019 18:00:00 26,0 20,0 22 12 E 10
18.01.2019 17:00:00 27,0 21,0 21 11 E 10
18.01.2019 16:00:00 28,0 21,0 22 12 E 10
18.01.2019 15:00:00 29,0 21,0 24 13 E 10
18.01.2019 14:00:00 29,0 21,0 26 14 E 10
18.01.2019 13:00:00 29,0 21,0 26 14 E 10
18.01.2019 12:00:00 29,0 21,0 28 15 E 10
18.01.2019 11:00:00 29,0 21,0 28 15 E 10
18.01.2019 10:00:00 29,0 21,0 26 14 E 10
18.01.2019 09:00:00 28,0 21,0 28 15 E 10
18.01.2019 08:00:00 27,0 20,0 26 14 E 10
18.01.2019 07:00:00 26,0 20,0 22 12 E 10
18.01.2019 06:00:00 25,0 20,0 22 12 E 10
18.01.2019 05:00:00 25,0 21,0 22 12 E 10
18.01.2019 04:00:00 25,0 20,0 22 12 ENE 10
18.01.2019 03:00:00 25,0 21,0 22 12 E 10
18.01.2019 02:00:00 25,0 21,0 22 12 E 10
18.01.2019 01:00:00 25,0 21,0 24 13 E 10
18.01.2019 00:00:00 25,0 21,0 22 12 E 10
17.01.2019 23:00:00 25,0 21,0 22 12 ENE 10
17.01.2019 22:00:00 25,0 21,0 21 11 E 10
17.01.2019 21:00:00 25,0 21,0 22 12 E 10
17.01.2019 20:00:00 26,0 21,0 21 11 E 10
17.01.2019 19:00:00 25,0 21,0 18 10 E 10
17.01.2019 18:00:00 26,0 21,0 18 10 ENE 10
17.01.2019 17:00:00 27,0 21,0 22 12 ENE 10
17.01.2019 16:00:00 28,0 21,0 24 13 E 10
17.01.2019 15:00:00 28,0 21,0 24 13 E 10
17.01.2019 14:00:00 29,0 22,0 26 14 E 10
17.01.2019 13:00:00 29,0 21,0 28 15 E 10
17.01.2019 12:00:00 29,0 23,0 31 17 E 10
17.01.2019 11:00:00 29,0 22,0 31 17 E 10
17.01.2019 10:00:00 29,0 21,0 31 17 E 10
17.01.2019 09:00:00 28,0 22,0 31 17 E 10
17.01.2019 08:00:00 27,0 21,0 31 17 E 10
17.01.2019 07:00:00 25,0 21,0 26 14 E 10
17.01.2019 06:00:00 25,0 21,0 28 15 E 10
17.01.2019 05:00:00 25,0 20,0 29 16 E 10
17.01.2019 04:00:00 25,0 21,0 29 16 E 10
17.01.2019 03:00:00 25,0 22,0 26 14 E 10
17.01.2019 02:00:00 25,0 22,0 24 13 ENE 10
17.01.2019 01:00:00 25,0 22,0 24 13 E 10
17.01.2019 00:00:00 25,0 21,0 24 13 E 10
16.01.2019 23:00:00 25,0 21,0 28 15 E 10
16.01.2019 22:00:00 25,0 21,0 26 14 E 10
16.01.2019 21:00:00 25,0 21,0 28 15 E 10
16.01.2019 20:00:00 26,0 21,0 26 14 E 10
16.01.2019 19:00:00 25,0 21,0 26 14 E 10
16.01.2019 18:00:00 26,0 21,0 22 12 E 10
16.01.2019 17:00:00 27,0 21,0 24 13 E 10
16.01.2019 16:00:00 28,0 21,0 26 14 E 10
16.01.2019 15:00:00 28,0 21,0 29 16 E 10
16.01.2019 14:00:00 28,0 21,0 29 16 E 10
16.01.2019 13:00:00 29,0 21,0 29 16 E 10
16.01.2019 12:00:00 29,0 21,0 29 16 E 10
16.01.2019 11:00:00 29,0 21,0 34 18 E 10
16.01.2019 10:00:00 28,0 21,0 34 18 E 10
16.01.2019 09:00:00 28,0 21,0 29 16 E 10
16.01.2019 08:00:00 27,0 21,0 34 18 E 10
16.01.2019 07:00:00 26,0 21,0 28 15 E 10
16.01.2019 06:00:00 25,0 21,0 28 15 E 10
16.01.2019 05:00:00 25,0 21,0 26 14 E 10
16.01.2019 04:00:00 25,0 21,0 24 13 E 10
16.01.2019 03:00:00 25,0 21,0 24 13 E 10
16.01.2019 02:00:00 25,0 21,0 22 12 E 10
16.01.2019 01:00:00 25,0 22,0 21 11 E 10
16.01.2019 00:00:00 25,0 21,0 24 13 E 10
15.01.2019 23:00:00 25,0 21,0 22 12 E 10
15.01.2019 22:00:00 25,0 21,0 21 11 E 10
15.01.2019 21:00:00 25,0 21,0 26 14 E 10
15.01.2019 20:00:00 25,0 21,0 21 11 E 10
15.01.2019 19:00:00 26,0 21,0 22 12 E 10
15.01.2019 18:00:00 26,0 21,0 22 12 E 10
15.01.2019 17:00:00 27,0 21,0 24 13 E 10
15.01.2019 16:00:00 28,0 21,0 24 13 E 10
15.01.2019 15:00:00 28,0 21,0 24 13 E 10
15.01.2019 14:00:00 29,0 21,0 22 12 E 10
15.01.2019 13:00:00 29,0 21,0 24 13 ESE 10
15.01.2019 12:00:00 28,0 21,0 22 12 E 10
15.01.2019 11:00:00 28,0 22,0 22 12 E 10
15.01.2019 10:00:00 28,0 22,0 24 13 ENE 10
15.01.2019 09:00:00 28,0 22,0 18 10 E 10
15.01.2019 08:00:00 26,0 22,0 21 11 ENE 10
15.01.2019 07:00:00 25,0 22,0 15 8 ENE 10
15.01.2019 06:00:00 24,0 22,0 16 9 ENE 10
15.01.2019 05:00:00 25,0 21,0 21 11 E 10
15.01.2019 04:00:00 25,0 21,0 21 11 E 10
15.01.2019 03:00:00 25,0 21,0 22 12 E 10
15.01.2019 02:00:00 25,0 21,0 21 11 E 10
15.01.2019 01:00:00 25,0 21,0 22 12 E 10
15.01.2019 00:00:00 25,0 21,0 22 12 E 10
14.01.2019 23:00:00 25,0 21,0 24 13 E 10
14.01.2019 22:00:00 25,0 21,0 21 11 E 10
14.01.2019 21:00:00 25,0 20,0 21 11 ENE 10
14.01.2019 20:00:00 25,0 20,0 24 13 E 10
14.01.2019 19:00:00 25,0 21,0 22 12 E 10
14.01.2019 18:00:00 26,0 21,0 21 11 ENE 10
14.01.2019 17:00:00 26,0 21,0 24 13 E 10
14.01.2019 16:00:00 27,0 20,0 26 14 E 10
14.01.2019 15:00:00 28,0 21,0 24 13 E 10
14.01.2019 14:00:00 28,0 21,0 26 14 E 10
14.01.2019 13:00:00 29,0 20,0 26 14 E 10
14.01.2019 12:00:00 29,0 21,0 28 15 E 10
14.01.2019 11:00:00 28,0 21,0 26 14 E 10
14.01.2019 10:00:00 27,0 20,0 21 11 E 10
14.01.2019 09:00:00 27,0 20,0 18 10 E 10
14.01.2019 08:00:00 25,0 20,0 11 6 E 10
14.01.2019 07:00:00 25,0 20,0 21 11 E 10
14.01.2019 06:00:00 24,0 20,0 16 9 ENE 10
14.01.2019 05:00:00 24,0 20,0 18 10 ENE 10
14.01.2019 04:00:00 24,0 20,0 13 7 ENE 10
14.01.2019 03:00:00 24,0 19,0 16 9 ENE 10
14.01.2019 02:00:00 25,0 19,0 18 10 ENE 10
14.01.2019 01:00:00 24,0 19,0 16 9 ENE 10
14.01.2019 00:00:00 25,0 19,0 21 11 ENE 10
13.01.2019 23:00:00 25,0 20,0 18 10 ENE 10
13.01.2019 22:00:00 25,0 20,0 18 10 ENE 10
13.01.2019 21:00:00 24,0 20,0 21 11 NE 10
13.01.2019 20:00:00 24,0 19,0 13 7 NE 10
13.01.2019 19:00:00 25,0 17,0 13 7 ENE 10
13.01.2019 18:00:00 26,0 19,0 18 10 ENE 10
13.01.2019 17:00:00 26,0 19,0 21 11 ENE 10
13.01.2019 16:00:00 27,0 18,0 24 13 E 10
13.01.2019 15:00:00 28,0 19,0 28 15 ENE 10
13.01.2019 14:00:00 28,0 19,0 28 15 E 10
13.01.2019 13:00:00 28,0 19,0 26 14 E 10
13.01.2019 12:00:00 28,0 19,0 28 15 E 10
13.01.2019 11:00:00 28,0 17,0 31 17 E 10
13.01.2019 10:00:00 28,0 17,0 31 17 E 10
13.01.2019 09:00:00 27,0 18,0 29 16 E 10
13.01.2019 08:00:00 26,0 18,0 21 11 ENE 10
13.01.2019 07:00:00 25,0 18,0 21 11 ENE 10

tt = temperature
td = dewpoint
ff = wind speed
dd = wind direction
vv = visibility

Next stations